Time;durP1;ratioP1;P1;durP2;ratioP2;P2;SDS_P1;SDS_P2;PMS_P1;PMS_P2;Temp;Humidity;BMP_temperature;BMP_pressure;BME280_temperature;BME280_humidity;BME280_pressure;Samples;Min_cycle;Max_cycle;Signal;HPM_P1;HPM_P2
2024/02/21 00:00:17;;;;;;;15.65;3.10;;;;;;;-141.50;100.00;63355.56;4990067;28;20062;-79
2024/02/21 00:02:43;;;;;;;14.60;2.88;;;;;;;-141.50;100.00;63355.56;4989543;28;20400;-79
2024/02/21 00:05:10;;;;;;;15.68;2.53;;;;;;;-141.50;100.00;63355.56;5006648;28;20111;-78
2024/02/21 00:07:37;;;;;;;15.27;3.00;;;;;;;-141.50;100.00;63355.56;5008336;28;20038;-79
2024/02/21 00:10:04;;;;;;;20.95;2.75;;;;;;;-141.50;100.00;63355.56;4979110;28;20050;-79
2024/02/21 00:12:31;;;;;;;12.43;3.20;;;;;;;-141.50;100.00;63355.56;5008525;28;20462;-79
2024/02/21 00:14:57;;;;;;;18.77;2.70;;;;;;;-141.50;100.00;63355.56;4990882;28;20052;-79
2024/02/21 00:17:26;;;;;;;16.90;2.60;;;;;;;-141.50;100.00;63355.56;5008399;28;20424;-79
2024/02/21 00:19:52;;;;;;;13.65;3.05;;;;;;;-141.50;100.00;63355.56;4989651;28;20515;-78
2024/02/21 00:22:19;;;;;;;15.57;3.47;;;;;;;-141.50;100.00;63355.56;5007507;28;20393;-78
2024/02/21 00:24:46;;;;;;;11.35;2.70;;;;;;;-141.50;100.00;63355.56;4989639;28;20049;-78
2024/02/21 00:27:13;;;;;;;21.50;2.65;;;;;;;-141.50;100.00;63355.56;5006832;28;20484;-79
2024/02/21 00:29:39;;;;;;;13.82;2.60;;;;;;;-141.50;100.00;63355.56;4990313;28;20084;-79
2024/02/21 00:32:06;;;;;;;14.95;3.10;;;;;;;-141.50;100.00;63355.56;5006133;28;20054;-79
2024/02/21 00:34:33;;;;;;;16.60;2.78;;;;;;;-141.50;100.00;63355.56;4990238;28;20455;-77
2024/02/21 00:37:00;;;;;;;13.48;2.63;;;;;;;-141.50;100.00;63355.56;5007541;28;20113;-79
2024/02/21 00:39:26;;;;;;;9.10;2.58;;;;;;;-141.50;100.00;63355.56;5007776;28;20450;-79
2024/02/21 00:41:53;;;;;;;17.20;2.80;;;;;;;-141.50;100.00;63355.56;5006394;28;20052;-78
2024/02/21 00:44:20;;;;;;;20.10;3.17;;;;;;;-141.50;100.00;63355.56;4979801;28;20050;-78
2024/02/21 00:46:47;;;;;;;12.68;2.58;;;;;;;-141.50;100.00;63355.56;5005116;28;20096;-79
2024/02/21 00:49:13;;;;;;;13.65;2.53;;;;;;;-141.50;100.00;63355.56;4989524;28;20229;-79
2024/02/21 00:51:40;;;;;;;9.65;3.20;;;;;;;-141.50;100.00;63355.56;4984245;28;20417;-79
2024/02/21 00:54:07;;;;;;;16.58;3.53;;;;;;;-141.50;100.00;63355.56;4988245;28;20142;-78
2024/02/21 00:56:34;;;;;;;21.13;3.17;;;;;;;-141.50;100.00;63355.56;5007883;28;20500;-79
2024/02/21 00:59:00;;;;;;;15.70;3.30;;;;;;;-141.50;100.00;63355.56;4988497;28;20128;-78
2024/02/21 01:01:27;;;;;;;13.55;2.83;;;;;;;-141.50;100.00;63355.56;5007248;28;20045;-77
2024/02/21 01:03:54;;;;;;;12.55;2.60;;;;;;;-141.50;100.00;63355.56;4991998;28;20100;-79
2024/02/21 01:06:21;;;;;;;18.25;3.53;;;;;;;-141.50;100.00;63355.56;5016170;28;20516;-78
2024/02/21 01:08:48;;;;;;;16.55;3.17;;;;;;;-141.50;100.00;63355.56;4999474;28;20029;-80
2024/02/21 01:11:15;;;;;;;10.70;2.65;;;;;;;-141.50;100.00;63355.56;5010813;28;20246;-76
2024/02/21 01:13:42;;;;;;;14.98;3.00;;;;;;;-141.50;100.00;63355.56;4992046;28;20112;-76
2024/02/21 01:16:09;;;;;;;12.90;3.20;;;;;;;-141.50;100.00;63355.56;4991167;28;20061;-77
2024/02/21 01:18:37;;;;;;;16.75;2.72;;;;;;;-141.50;100.00;63355.56;5010386;28;20200;-79
2024/02/21 01:21:08;;;;;;;13.38;3.33;;;;;;;-141.50;100.00;63355.56;5010786;28;20112;-77
2024/02/21 01:23:35;;;;;;;12.77;3.05;;;;;;;-141.50;100.00;63355.56;5009678;28;20045;-78
2024/02/21 01:26:05;;;;;;;16.38;3.08;;;;;;;-141.50;100.00;63355.56;4995325;28;20038;-78
2024/02/21 01:28:31;;;;;;;13.80;3.00;;;;;;;-141.50;100.00;63355.56;5012008;28;20046;-79
2024/02/21 01:30:58;;;;;;;16.65;3.00;;;;;;;-141.50;100.00;63355.56;5007795;28;20577;-78
2024/02/21 01:33:25;;;;;;;19.35;3.10;;;;;;;-141.50;100.00;63355.56;5009644;28;20148;-78
2024/02/21 01:35:52;;;;;;;15.88;3.03;;;;;;;-141.50;100.00;63355.56;5009591;28;20045;-79
2024/02/21 01:38:19;;;;;;;22.55;3.40;;;;;;;-141.50;100.00;63355.56;5010145;28;20077;-77
2024/02/21 01:40:46;;;;;;;9.13;3.00;;;;;;;-141.50;100.00;63355.56;5012132;28;20076;-79
2024/02/21 01:43:18;;;;;;;19.17;3.78;;;;;;;-141.50;100.00;63355.56;5010122;28;20078;-78
2024/02/21 01:45:49;;;;;;;11.23;2.88;;;;;;;-141.50;100.00;63355.56;4987886;28;20061;-79
2024/02/21 01:48:18;;;;;;;20.38;3.67;;;;;;;-141.50;100.00;63355.56;5004754;28;20050;-79
2024/02/21 01:50:46;;;;;;;25.55;3.97;;;;;;;-141.50;100.00;63355.56;5010980;28;20068;-79
2024/02/21 01:53:18;;;;;;;15.77;3.10;;;;;;;-141.50;100.00;63355.56;4991583;28;20240;-79
2024/02/21 01:55:46;;;;;;;15.85;3.00;;;;;;;-141.50;100.00;63355.56;5008642;28;20057;-79
2024/02/21 01:58:17;;;;;;;18.85;3.58;;;;;;;-141.50;100.00;63355.56;4992769;28;20070;-78
2024/02/21 02:00:46;;;;;;;17.55;3.70;;;;;;;-141.50;100.00;63355.56;4993350;28;20500;-79
2024/02/21 02:03:16;;;;;;;15.52;3.25;;;;;;;-141.50;100.00;63355.56;5009978;28;20070;-79
2024/02/21 02:05:48;;;;;;;18.58;3.65;;;;;;;-141.50;100.00;63355.56;5011249;28;20057;-77
2024/02/21 02:08:16;;;;;;;18.33;3.40;;;;;;;-141.50;100.00;63355.56;5008500;28;20578;-79
2024/02/21 02:10:43;;;;;;;19.60;3.92;;;;;;;-141.50;100.00;63355.56;5012001;28;20042;-78
2024/02/21 02:13:10;;;;;;;12.93;3.50;;;;;;;-141.50;100.00;63355.56;5015409;28;20098;-79
2024/02/21 02:15:41;;;;;;;15.27;3.63;;;;;;;-141.50;100.00;63355.56;4993501;28;20052;-78
2024/02/21 02:18:09;;;;;;;16.83;3.38;;;;;;;-141.50;100.00;63355.56;4991225;28;20052;-77
2024/02/21 02:20:36;;;;;;;18.65;3.80;;;;;;;-141.50;100.00;63355.56;5009226;28;20222;-79
2024/02/21 02:23:25;;;;;;;11.85;3.42;;;;;;;-141.50;100.00;63355.56;5009083;28;20046;-79
2024/02/21 02:25:52;;;;;;;13.07;3.30;;;;;;;-141.50;100.00;63355.56;5009320;28;20048;-79
2024/02/21 02:28:20;;;;;;;11.30;3.80;;;;;;;-141.50;100.00;63355.56;4981937;28;20122;-78
2024/02/21 02:30:48;;;;;;;17.25;4.05;;;;;;;-141.50;100.00;63355.56;4991394;28;20472;-79
2024/02/21 02:33:17;;;;;;;12.93;3.30;;;;;;;-141.50;100.00;63355.56;5008763;28;20073;-79
2024/02/21 02:35:44;;;;;;;12.57;3.20;;;;;;;-141.50;100.00;63355.56;5010143;28;20038;-79
2024/02/21 02:38:14;;;;;;;20.52;3.65;;;;;;;-141.50;100.00;63355.56;5008446;28;20107;-79
2024/02/21 02:40:42;;;;;;;19.85;4.22;;;;;;;-141.50;100.00;63355.56;5010235;28;20467;-79
2024/02/21 02:43:09;;;;;;;13.73;3.65;;;;;;;-141.50;100.00;63355.56;5008758;28;20206;-79
2024/02/21 02:45:36;;;;;;;12.50;3.60;;;;;;;-141.50;100.00;63355.56;5010204;28;20053;-78
2024/02/21 02:48:04;;;;;;;16.60;3.88;;;;;;;-141.50;100.00;63355.56;5009313;28;20073;-79
2024/02/21 02:50:31;;;;;;;13.25;3.50;;;;;;;-141.50;100.00;63355.56;5010157;28;20085;-79
2024/02/21 02:52:58;;;;;;;19.10;3.75;;;;;;;-141.50;100.00;63355.56;5008526;28;20042;-79
2024/02/21 02:55:26;;;;;;;17.45;3.83;;;;;;;-141.50;100.00;63355.56;5008880;28;20116;-79
2024/02/21 02:57:53;;;;;;;15.98;3.78;;;;;;;-141.50;100.00;63355.56;5009820;28;20038;-79
2024/02/21 03:00:20;;;;;;;15.43;3.45;;;;;;;-141.50;100.00;63355.56;5010202;28;20508;-78
2024/02/21 03:02:49;;;;;;;13.20;3.75;;;;;;;-141.50;100.00;63355.56;5009823;28;20516;-78
2024/02/21 03:05:19;;;;;;;21.23;3.95;;;;;;;-141.50;100.00;63355.56;5003423;28;20451;-78
2024/02/21 03:07:47;;;;;;;18.10;3.65;;;;;;;-141.50;100.00;63355.56;4976995;28;20045;-79
2024/02/21 03:10:16;;;;;;;23.05;4.57;;;;;;;-141.50;100.00;63355.56;5009044;28;20053;-79
2024/02/21 03:12:44;;;;;;;16.27;4.30;;;;;;;-141.50;100.00;63355.56;5010976;28;20046;-79
2024/02/21 03:15:12;;;;;;;19.48;4.05;;;;;;;-141.50;100.00;63355.56;5003657;28;20041;-77
2024/02/21 03:17:39;;;;;;;12.77;4.22;;;;;;;-141.50;100.00;63355.56;5007586;28;20050;-77
2024/02/21 03:20:09;;;;;;;14.82;3.50;;;;;;;-141.50;100.00;63355.56;5007738;28;20500;-78
2024/02/21 03:22:39;;;;;;;15.75;3.83;;;;;;;-141.50;100.00;63355.56;5007052;28;20052;-79
2024/02/21 03:25:08;;;;;;;12.75;3.58;;;;;;;-141.50;100.00;63355.56;5006000;28;20578;-78
2024/02/21 03:27:34;;;;;;;13.30;3.55;;;;;;;-141.50;100.00;63355.56;5006885;28;20523;-79
2024/02/21 03:30:01;;;;;;;14.00;3.83;;;;;;;-141.50;100.00;63355.56;4983086;28;20048;-77
2024/02/21 03:32:31;;;;;;;24.00;5.45;;;;;;;-141.50;100.00;63355.56;4989872;28;20045;-77
2024/02/21 03:34:58;;;;;;;19.40;4.00;;;;;;;-141.50;100.00;63355.56;4990788;28;20411;-78
2024/02/21 03:37:25;;;;;;;10.98;3.30;;;;;;;-141.50;100.00;63355.56;4991070;28;20049;-78
2024/02/21 03:39:52;;;;;;;19.20;4.50;;;;;;;-141.50;100.00;63355.56;5008795;28;20136;-78
2024/02/21 03:42:19;;;;;;;15.70;3.58;;;;;;;-141.50;100.00;63355.56;4989996;28;20078;-78
2024/02/21 03:44:45;;;;;;;20.67;4.10;;;;;;;-141.50;100.00;63355.56;4985594;28;20042;-78
2024/02/21 03:47:12;;;;;;;15.80;3.80;;;;;;;-141.50;100.00;63355.56;5008073;28;20046;-78
2024/02/21 03:49:39;;;;;;;18.13;3.88;;;;;;;-141.50;100.00;63355.56;5009613;28;20450;-78
2024/02/21 03:52:06;;;;;;;14.73;3.58;;;;;;;-141.50;100.00;63355.56;4988803;28;20045;-78
2024/02/21 03:54:33;;;;;;;15.73;3.17;;;;;;;-141.50;100.00;63355.56;4985338;28;20051;-78
2024/02/21 03:57:00;;;;;;;13.50;3.53;;;;;;;-141.50;100.00;63355.56;5009194;28;20046;-78
2024/02/21 03:59:27;;;;;;;20.38;4.40;;;;;;;-141.50;100.00;63355.56;5009868;28;20120;-77
2024/02/21 04:01:54;;;;;;;15.75;4.00;;;;;;;-141.50;100.00;63355.56;5008242;28;20049;-77
2024/02/21 04:04:20;;;;;;;17.90;4.18;;;;;;;-141.50;100.00;63355.56;4975432;28;20520;-78
2024/02/21 04:06:49;;;;;;;20.98;4.30;;;;;;;-141.50;100.00;63355.56;5004412;28;20045;-77
2024/02/21 04:09:16;;;;;;;15.95;4.05;;;;;;;-141.50;100.00;63355.56;4987218;28;20070;-79
2024/02/21 04:11:43;;;;;;;19.35;3.63;;;;;;;-141.50;100.00;63355.56;4991702;28;20037;-79
2024/02/21 04:14:11;;;;;;;17.23;3.40;;;;;;;-141.50;100.00;63355.56;5005990;28;20129;-79
2024/02/21 04:16:41;;;;;;;13.45;4.20;;;;;;;-141.50;100.00;63355.56;5008769;28;20356;-78
2024/02/21 04:19:08;;;;;;;12.63;4.15;;;;;;;-141.50;100.00;63355.56;5007204;28;20045;-78
2024/02/21 04:21:35;;;;;;;11.85;4.25;;;;;;;-141.50;100.00;63355.56;5005894;28;20050;-77
2024/02/21 04:24:05;;;;;;;15.13;3.88;;;;;;;-141.50;100.00;63355.56;5003243;28;20492;-77
2024/02/21 04:26:33;;;;;;;18.45;4.13;;;;;;;-141.50;100.00;63355.56;5009212;28;20073;-79
2024/02/21 04:29:00;;;;;;;17.88;4.05;;;;;;;-141.50;100.00;63355.56;4990835;28;20104;-79
2024/02/21 04:31:27;;;;;;;18.88;4.53;;;;;;;-141.50;100.00;63355.56;4989594;28;20516;-78
2024/02/21 04:33:54;;;;;;;18.58;4.25;;;;;;;-141.50;100.00;63355.56;5006622;28;20129;-79
2024/02/21 04:36:20;;;;;;;13.70;4.22;;;;;;;-141.50;100.00;63355.56;5008225;28;20319;-77
2024/02/21 04:38:47;;;;;;;15.63;3.75;;;;;;;-141.50;100.00;63355.56;4992436;28;20087;-77
2024/02/21 04:41:14;;;;;;;15.77;4.38;;;;;;;-141.50;100.00;63355.56;5005280;28;20416;-77
2024/02/21 04:43:41;;;;;;;17.13;3.72;;;;;;;-141.50;100.00;63355.56;5008361;28;20100;-78
2024/02/21 04:46:08;;;;;;;11.55;3.92;;;;;;;-141.50;100.00;63355.56;5008681;28;20041;-76
2024/02/21 04:48:34;;;;;;;16.70;4.30;;;;;;;-141.50;100.00;63355.56;5008115;28;20107;-77
2024/02/21 04:51:01;;;;;;;13.70;4.10;;;;;;;-141.50;100.00;63355.56;4988376;28;20046;-77
2024/02/21 04:53:27;;;;;;;16.23;4.38;;;;;;;-141.50;100.00;63355.56;5007197;28;20053;-76
2024/02/21 04:55:54;;;;;;;16.70;3.92;;;;;;;-141.50;100.00;63355.56;4990502;28;20034;-76
2024/02/21 04:58:21;;;;;;;14.68;3.95;;;;;;;-141.50;100.00;63355.56;5006439;28;20534;-77
2024/02/21 05:00:48;;;;;;;17.90;4.05;;;;;;;-141.50;100.00;63355.56;4993027;28;20076;-77
2024/02/21 05:03:15;;;;;;;19.75;4.28;;;;;;;-141.50;100.00;63355.56;5018933;28;20050;-78
2024/02/21 05:05:42;;;;;;;19.67;4.22;;;;;;;-141.50;100.00;63355.56;5014991;28;20068;-79
2024/02/21 05:08:10;;;;;;;23.05;4.68;;;;;;;-141.50;100.00;63355.56;5006192;28;20046;-78
2024/02/21 05:10:36;;;;;;;18.27;4.50;;;;;;;-141.50;100.00;63355.56;4983871;28;20475;-78
2024/02/21 05:13:04;;;;;;;22.70;4.30;;;;;;;-141.50;100.00;63355.56;4974434;28;20456;-78
2024/02/21 05:15:31;;;;;;;21.23;4.60;;;;;;;-141.50;100.00;63355.56;5009373;28;20058;-79
2024/02/21 05:17:58;;;;;;;19.38;4.18;;;;;;;-141.50;100.00;63355.56;4994462;28;20064;-80
2024/02/21 05:20:25;;;;;;;18.40;4.97;;;;;;;-141.50;100.00;63355.56;5010614;28;20166;-78
2024/02/21 05:22:52;;;;;;;29.17;5.15;;;;;;;-141.50;100.00;63355.56;4987193;28;20058;-79
2024/02/21 05:25:19;;;;;;;15.68;4.30;;;;;;;-141.50;100.00;63355.56;5009580;28;20049;-78
2024/02/21 05:27:45;;;;;;;18.08;4.55;;;;;;;-141.50;100.00;63355.56;4992531;28;20485;-78
2024/02/21 05:30:12;;;;;;;28.50;5.25;;;;;;;-141.50;100.00;63355.56;4990764;28;20543;-78
2024/02/21 05:32:39;;;;;;;19.70;4.93;;;;;;;-141.50;100.00;63355.56;4992600;28;20111;-79
2024/02/21 05:35:06;;;;;;;18.90;4.45;;;;;;;-141.50;100.00;63355.56;4992253;28;20141;-78
2024/02/21 05:37:32;;;;;;;22.33;5.05;;;;;;;-141.50;100.00;63355.56;5009897;28;20458;-79
2024/02/21 05:39:59;;;;;;;22.35;4.55;;;;;;;-141.50;100.00;63355.56;4987218;28;20455;-77
2024/02/21 05:42:26;;;;;;;17.65;4.55;;;;;;;-141.50;100.00;63355.56;5007709;28;20236;-78
2024/02/21 05:44:52;;;;;;;24.83;4.97;;;;;;;-141.50;100.00;63355.56;4985522;28;20069;-79
2024/02/21 05:47:20;;;;;;;17.65;4.22;;;;;;;-141.50;100.00;63355.56;5000318;28;20504;-77
2024/02/21 05:49:48;;;;;;;18.13;4.53;;;;;;;-141.50;100.00;63355.56;4989429;28;20056;-77
2024/02/21 05:52:15;;;;;;;17.80;4.22;;;;;;;-141.50;100.00;63355.56;5008799;28;20053;-78
2024/02/21 05:54:41;;;;;;;12.25;4.05;;;;;;;-141.50;100.00;63355.56;5010109;28;20302;-79
2024/02/21 05:57:09;;;;;;;18.52;4.97;;;;;;;-141.50;100.00;63355.56;4991317;28;20049;-77
2024/02/21 05:59:39;;;;;;;15.80;4.43;;;;;;;-141.50;100.00;63355.56;5008587;28;20053;-77
2024/02/21 06:02:06;;;;;;;15.57;4.60;;;;;;;-141.50;100.00;63355.56;5000313;28;20133;-77
2024/02/21 06:04:33;;;;;;;15.52;4.65;;;;;;;-141.50;100.00;63355.56;5006500;28;20118;-77
2024/02/21 06:07:01;;;;;;;20.33;4.43;;;;;;;-141.50;100.00;63355.56;4986283;28;20050;-77
2024/02/21 06:09:28;;;;;;;15.95;4.25;;;;;;;-141.50;100.00;63355.56;5006252;28;20050;-77
2024/02/21 06:11:55;;;;;;;17.63;4.70;;;;;;;-141.50;100.00;63355.56;4981049;28;20057;-77
2024/02/21 06:14:21;;;;;;;14.93;4.30;;;;;;;-141.50;100.00;63355.56;4988392;28;20069;-77
2024/02/21 06:16:48;;;;;;;14.93;3.60;;;;;;;-141.50;100.00;63355.56;4978711;28;20061;-77
2024/02/21 06:19:15;;;;;;;13.70;4.10;;;;;;;-141.50;100.00;63355.56;4984749;28;20050;-78
2024/02/21 06:21:42;;;;;;;16.65;4.35;;;;;;;-141.50;100.00;63355.56;4989514;28;20072;-79
2024/02/21 06:24:08;;;;;;;13.93;3.70;;;;;;;-141.50;100.00;63355.56;4989627;28;20148;-79
2024/02/21 06:26:35;;;;;;;14.48;4.05;;;;;;;-141.50;100.00;63355.56;5008148;28;20606;-78
2024/02/21 06:29:02;;;;;;;16.80;4.10;;;;;;;-141.50;100.00;63355.56;4984846;28;20124;-79
2024/02/21 06:31:29;;;;;;;13.60;3.97;;;;;;;-141.50;100.00;63355.56;5007577;28;20079;-78
2024/02/21 06:33:56;;;;;;;19.77;4.43;;;;;;;-141.50;100.00;63355.56;5007614;28;20456;-77
2024/02/21 06:36:23;;;;;;;18.52;4.00;;;;;;;-141.50;100.00;63355.56;5006723;28;20217;-77
2024/02/21 06:38:50;;;;;;;10.23;3.42;;;;;;;-141.50;100.00;63355.56;5007534;28;20089;-79
2024/02/21 06:41:19;;;;;;;13.00;4.60;;;;;;;-141.50;100.00;63355.56;5006052;28;20124;-78
2024/02/21 06:43:47;;;;;;;16.45;4.13;;;;;;;-141.50;100.00;63355.56;4990060;28;20496;-77
2024/02/21 06:46:24;;;;;;;12.25;3.65;;;;;;;-141.50;100.00;63355.56;4983463;28;20094;-78
2024/02/21 06:48:51;;;;;;;13.75;4.97;;;;;;;-141.50;100.00;63355.56;5007947;28;20053;-78
2024/02/21 06:51:18;;;;;;;15.63;4.65;;;;;;;-141.50;100.00;63355.56;5006731;28;20050;-77
2024/02/21 06:53:45;;;;;;;16.75;4.25;;;;;;;-141.50;100.00;63355.56;5007324;28;20124;-78
2024/02/21 06:56:12;;;;;;;18.67;4.15;;;;;;;-141.50;100.00;63355.56;4997417;28;20072;-77
2024/02/21 06:58:39;;;;;;;16.67;4.40;;;;;;;-141.50;100.00;63355.56;4989151;28;20058;-77
2024/02/21 07:01:06;;;;;;;20.73;5.22;;;;;;;-141.50;100.00;63355.56;4987810;28;20053;-78
2024/02/21 07:03:33;;;;;;;26.02;5.32;;;;;;;-141.50;100.00;63355.56;4989173;28;20050;-78
2024/02/21 07:05:59;;;;;;;15.10;4.97;;;;;;;-141.50;100.00;63355.56;4991499;28;20141;-78
2024/02/21 07:08:27;;;;;;;19.05;4.53;;;;;;;-141.50;100.00;63355.56;5005906;28;20046;-79
2024/02/21 07:10:54;;;;;;;22.10;4.80;;;;;;;-141.50;100.00;63355.56;5008053;28;20423;-78
2024/02/21 07:13:22;;;;;;;18.27;4.55;;;;;;;-141.50;100.00;63355.56;5005466;28;20061;-77
2024/02/21 07:15:49;;;;;;;19.45;4.63;;;;;;;-141.50;100.00;63355.56;4982654;28;20061;-78
2024/02/21 07:18:16;;;;;;;24.25;4.75;;;;;;;-141.50;100.00;63355.56;4988977;28;20046;-78
2024/02/21 07:20:43;;;;;;;13.00;4.32;;;;;;;-141.50;100.00;63355.56;4974420;28;20062;-78
2024/02/21 07:23:10;;;;;;;24.77;5.55;;;;;;;-141.50;100.00;63355.56;5007608;28;20053;-78
2024/02/21 07:25:37;;;;;;;10.88;4.18;;;;;;;-141.50;100.00;63355.56;5006814;28;20062;-77
2024/02/21 07:28:04;;;;;;;17.65;4.53;;;;;;;-141.50;100.00;63355.56;5007166;28;20053;-79
2024/02/21 07:30:31;;;;;;;22.63;5.45;;;;;;;-141.50;100.00;63355.56;4979204;28;20038;-78
2024/02/21 07:32:57;;;;;;;14.40;4.80;;;;;;;-141.50;100.00;63355.56;5000606;28;20049;-77
2024/02/21 07:35:24;;;;;;;15.43;5.22;;;;;;;-141.50;100.00;63355.56;5005582;28;20500;-78
2024/02/21 07:37:51;;;;;;;20.85;4.47;;;;;;;-141.50;100.00;63355.56;5005909;28;20543;-79
2024/02/21 07:40:18;;;;;;;23.30;4.57;;;;;;;-141.50;100.00;63355.56;4988621;28;20327;-79
2024/02/21 07:42:45;;;;;;;15.23;4.93;;;;;;;-141.50;100.00;63355.56;5006793;28;20053;-79
2024/02/21 07:45:18;;;;;;;18.10;5.10;;;;;;;-141.50;100.00;63355.56;5009517;28;20057;-78
2024/02/21 07:47:45;;;;;;;20.83;5.63;;;;;;;-141.50;100.00;63355.56;5011251;28;20534;-78
2024/02/21 07:50:12;;;;;;;18.02;4.60;;;;;;;-141.50;100.00;63355.56;4992959;28;20121;-78
2024/02/21 07:52:39;;;;;;;23.67;5.10;;;;;;;-141.50;100.00;63355.56;4989405;28;20068;-77
2024/02/21 07:55:06;;;;;;;16.15;4.70;;;;;;;-141.50;100.00;63355.56;4990365;28;20504;-78
2024/02/21 07:57:33;;;;;;;19.02;4.70;;;;;;;-141.50;100.00;63355.56;4989377;28;20050;-78
2024/02/21 08:00:00;;;;;;;11.93;4.82;;;;;;;-141.50;100.00;63355.56;5006924;28;20453;-78
2024/02/21 08:02:27;;;;;;;22.15;4.68;;;;;;;-141.50;100.00;63355.56;4988077;28;20489;-77
2024/02/21 08:04:53;;;;;;;19.50;5.20;;;;;;;-141.50;100.00;63355.56;5007246;28;20578;-77
2024/02/21 08:07:20;;;;;;;19.05;4.45;;;;;;;-141.50;100.00;63355.56;5006273;28;20057;-78
2024/02/21 08:09:47;;;;;;;11.20;4.50;;;;;;;-141.50;100.00;63355.56;4989056;28;20289;-79
2024/02/21 08:12:13;;;;;;;16.77;4.22;;;;;;;-141.50;100.00;63355.56;5006184;28;20472;-78
2024/02/21 08:14:40;;;;;;;13.98;4.68;;;;;;;-141.50;100.00;63355.56;5006471;28;20108;-78
2024/02/21 08:17:07;;;;;;;15.07;4.38;;;;;;;-141.50;100.00;63355.56;5006081;28;20252;-79
2024/02/21 08:19:34;;;;;;;18.15;4.68;;;;;;;-141.50;100.00;63355.56;4989124;28;20128;-79
2024/02/21 08:22:01;;;;;;;21.60;4.38;;;;;;;-141.50;100.00;63355.56;5007158;28;20120;-78
2024/02/21 08:24:27;;;;;;;20.27;4.40;;;;;;;-141.50;100.00;63355.56;4989133;28;20049;-78
2024/02/21 08:26:54;;;;;;;13.30;4.55;;;;;;;-141.50;100.00;63355.56;4990260;28;20058;-79
2024/02/21 08:29:21;;;;;;;16.17;4.80;;;;;;;-141.50;100.00;63355.56;5001167;28;20112;-78
2024/02/21 08:31:48;;;;;;;18.23;4.53;;;;;;;-141.50;100.00;63355.56;5007651;28;20061;-78
2024/02/21 08:34:15;;;;;;;15.30;4.10;;;;;;;-141.50;100.00;63355.56;5008053;28;20077;-77
2024/02/21 08:36:43;;;;;;;15.20;4.07;;;;;;;-141.50;100.00;63355.56;5007897;28;20061;-78
2024/02/21 08:39:09;;;;;;;18.58;4.15;;;;;;;-141.50;100.00;63355.56;5007030;28;20051;-78
2024/02/21 08:41:37;;;;;;;20.60;3.83;;;;;;;-141.50;100.00;63355.56;4989801;28;20127;-78
2024/02/21 08:44:28;;;;;;;17.33;4.03;;;;;;;-141.50;100.00;63355.56;4983245;28;20439;-76
2024/02/21 08:46:55;;;;;;;14.82;3.58;;;;;;;-141.50;100.00;63355.56;5007125;28;20167;-78
2024/02/21 08:49:23;;;;;;;12.65;4.05;;;;;;;-141.50;100.00;63355.56;5006101;28;20054;-77
2024/02/21 08:51:52;;;;;;;11.00;3.80;;;;;;;-141.50;100.00;63355.56;4989639;28;20064;-77
2024/02/21 08:54:19;;;;;;;12.68;4.03;;;;;;;-141.50;100.00;63355.56;4997570;28;20547;-77
2024/02/21 08:56:46;;;;;;;10.63;3.70;;;;;;;-141.50;100.00;63355.56;5006130;28;20065;-76
2024/02/21 08:59:13;;;;;;;10.52;4.32;;;;;;;-141.50;100.00;63355.56;5004685;28;20054;-78
2024/02/21 09:01:40;;;;;;;10.32;3.90;;;;;;;-141.50;100.00;63355.56;5000115;28;20057;-79
2024/02/21 09:04:07;;;;;;;12.40;4.00;;;;;;;-141.50;100.00;63355.56;4988418;28;20053;-79
2024/02/21 09:06:37;;;;;;;11.23;3.83;;;;;;;-141.50;100.00;63355.56;5006559;28;20057;-79
2024/02/21 09:09:04;;;;;;;10.55;3.47;;;;;;;-141.50;100.00;63355.56;4983723;28;20419;-79
2024/02/21 09:11:30;;;;;;;18.50;3.53;;;;;;;-141.50;100.00;63355.56;4983317;28;20087;-78
2024/02/21 09:13:57;;;;;;;15.50;3.20;;;;;;;-141.50;100.00;63355.56;5007227;28;20127;-76
2024/02/21 09:16:24;;;;;;;15.13;3.60;;;;;;;-141.50;100.00;63355.56;5006153;28;20420;-79
2024/02/21 09:18:52;;;;;;;14.85;3.95;;;;;;;-141.50;100.00;63355.56;5006569;28;20085;-79
2024/02/21 09:21:19;;;;;;;15.13;4.07;;;;;;;-141.50;100.00;63355.56;5002397;28;20050;-79
2024/02/21 09:23:46;;;;;;;17.58;3.80;;;;;;;-141.50;100.00;63355.56;5008086;28;20608;-78
2024/02/21 09:26:15;;;;;;;10.18;3.63;;;;;;;-141.50;100.00;63355.56;5009918;28;20057;-78
2024/02/21 09:28:46;;;;;;;13.48;3.58;;;;;;;-141.50;100.00;63355.56;4975964;28;20066;-79
2024/02/21 09:31:13;;;;;;;10.32;3.78;;;;;;;-141.50;100.00;63355.56;5009529;28;20050;-78
2024/02/21 09:33:40;;;;;;;12.07;3.35;;;;;;;-141.50;100.00;63355.56;5009928;28;20388;-79
2024/02/21 09:36:06;;;;;;;12.45;3.63;;;;;;;-141.50;100.00;63355.56;5005904;28;20339;-79
2024/02/21 09:38:33;;;;;;;11.02;3.67;;;;;;;-141.50;100.00;63355.56;4987770;28;20050;-79
2024/02/21 09:41:26;;;;;;;13.30;3.35;;;;;;;-141.50;100.00;63355.56;5012947;28;20074;-79
2024/02/21 09:43:55;;;;;;;8.93;4.20;;;;;;;-141.50;100.00;63355.56;5011059;28;20052;-78
2024/02/21 09:46:57;;;;;;;11.52;3.55;;;;;;;-141.50;100.00;63355.56;5005132;28;20500;-79
2024/02/21 09:49:35;;;;;;;16.70;3.90;;;;;;;-141.50;100.00;63355.56;4978151;28;20058;-78
2024/02/21 09:52:04;;;;;;;8.88;2.95;;;;;;;-141.50;100.00;63355.56;5001125;28;20052;-79
2024/02/21 09:54:32;;;;;;;8.63;2.95;;;;;;;-141.50;100.00;63355.56;5003274;28;20053;-79
2024/02/21 09:57:00;;;;;;;11.40;3.10;;;;;;;-141.50;100.00;63355.56;4993584;28;20108;-78
2024/02/21 09:59:28;;;;;;;14.50;3.38;;;;;;;-141.50;100.00;63355.56;4992644;28;20053;-78
2024/02/21 10:01:55;;;;;;;18.77;3.05;;;;;;;-141.50;100.00;63355.56;5010083;28;20062;-77
2024/02/21 10:04:23;;;;;;;12.02;3.13;;;;;;;-141.50;100.00;63355.56;5009170;28;20162;-79
2024/02/21 10:06:50;;;;;;;12.57;2.88;;;;;;;-141.50;100.00;63355.56;4992421;28;20050;-80
2024/02/21 10:09:27;;;;;;;7.35;2.58;;;;;;;-141.50;100.00;63355.56;5007918;28;20061;-79
2024/02/21 10:11:55;;;;;;;9.90;2.72;;;;;;;-141.50;100.00;63355.56;4991694;28;20500;-79
2024/02/21 10:14:22;;;;;;;12.48;2.85;;;;;;;-141.50;100.00;63355.56;5003115;28;20053;-79
2024/02/21 10:17:00;;;;;;;8.63;3.00;;;;;;;-141.50;100.00;63355.56;5003172;28;20335;-79
2024/02/21 10:19:27;;;;;;;11.98;2.97;;;;;;;-141.50;100.00;63355.56;5002675;28;20394;-76
2024/02/21 10:22:07;;;;;;;9.63;2.97;;;;;;;-141.50;100.00;63355.56;4985205;28;20050;-78
2024/02/21 10:24:37;;;;;;;10.70;3.20;;;;;;;-141.50;100.00;63355.56;5007381;28;20524;-78
2024/02/21 10:27:08;;;;;;;10.20;2.70;;;;;;;-141.50;100.00;63355.56;5009682;28;20113;-78
2024/02/21 10:29:36;;;;;;;15.57;3.47;;;;;;;-141.50;100.00;63355.56;5008755;28;20057;-78
2024/02/21 10:32:09;;;;;;;9.38;3.03;;;;;;;-141.50;100.00;63355.56;5005345;28;20077;-76
2024/02/21 10:34:37;;;;;;;13.23;2.83;;;;;;;-141.50;100.00;63355.56;5007051;28;20238;-77
2024/02/21 10:37:11;;;;;;;11.63;2.92;;;;;;;-141.50;100.00;63355.56;5009064;28;20058;-78
2024/02/21 10:39:40;;;;;;;6.70;2.63;;;;;;;-141.50;100.00;63355.56;4996163;28;20104;-79
2024/02/21 10:42:07;;;;;;;10.73;2.63;;;;;;;-141.50;100.00;63355.56;4988924;28;20054;-80
2024/02/21 10:44:39;;;;;;;11.63;2.85;;;;;;;-141.50;100.00;63355.56;4991064;28;20081;-79
2024/02/21 10:47:16;;;;;;;6.25;2.55;;;;;;;-141.50;100.00;63355.56;4987964;28;20104;-79
2024/02/21 10:49:47;;;;;;;9.02;2.72;;;;;;;-141.50;100.00;63355.56;4977014;28;20077;-78
2024/02/21 10:52:51;;;;;;;12.70;3.50;;;;;;;-141.50;100.00;63355.56;4989599;28;20057;-78
2024/02/21 10:55:31;;;;;;;9.48;2.70;;;;;;;-141.50;100.00;63355.56;5007836;28;20053;-78
2024/02/21 10:57:58;;;;;;;9.73;2.60;;;;;;;-141.50;100.00;63355.56;5008688;28;20056;-79
2024/02/21 11:00:30;;;;;;;8.25;2.25;;;;;;;-141.50;100.00;63355.56;4985906;28;20073;-79
2024/02/21 11:02:59;;;;;;;11.35;2.80;;;;;;;-141.50;100.00;63355.56;5008041;28;20096;-78
2024/02/21 11:05:28;;;;;;;8.98;2.90;;;;;;;-141.50;100.00;63355.56;5005703;28;20041;-79